sensor_id;sensor_type;location;lat;lon;timestamp;P1;durP1;ratioP1;P2;durP2;ratioP2
38779;SDS011;29273;49.962;9.768;2022-10-16T00:01:45;0.30;;;0.20;;
38779;SDS011;29273;49.962;9.768;2022-10-16T00:04:11;0.30;;;0.20;;
38779;SDS011;29273;49.962;9.768;2022-10-16T00:06:36;0.60;;;0.30;;
38779;SDS011;29273;49.962;9.768;2022-10-16T00:09:02;0.30;;;0.20;;
38779;SDS011;29273;49.962;9.768;2022-10-16T00:11:29;0.88;;;0.38;;
38779;SDS011;29273;49.962;9.768;2022-10-16T00:13:59;0.20;;;0.20;;
38779;SDS011;29273;49.962;9.768;2022-10-16T00:16:27;0.40;;;0.30;;
38779;SDS011;29273;49.962;9.768;2022-10-16T00:18:53;0.52;;;0.40;;
38779;SDS011;29273;49.962;9.768;2022-10-16T00:21:20;0.38;;;0.20;;
38779;SDS011;29273;49.962;9.768;2022-10-16T00:24:08;1.80;;;0.30;;
38779;SDS011;29273;49.962;9.768;2022-10-16T00:26:36;0.40;;;0.40;;
38779;SDS011;29273;49.962;9.768;2022-10-16T00:29:03;0.20;;;0.20;;
38779;SDS011;29273;49.962;9.768;2022-10-16T00:31:29;0.30;;;0.25;;
38779;SDS011;29273;49.962;9.768;2022-10-16T00:33:55;0.40;;;0.30;;
38779;SDS011;29273;49.962;9.768;2022-10-16T00:36:22;0.32;;;0.30;;
38779;SDS011;29273;49.962;9.768;2022-10-16T00:38:50;0.20;;;0.20;;
38779;SDS011;29273;49.962;9.768;2022-10-16T00:41:18;1.27;;;0.20;;
38779;SDS011;29273;49.962;9.768;2022-10-16T00:43:51;0.20;;;0.20;;
38779;SDS011;29273;49.962;9.768;2022-10-16T00:46:27;0.28;;;0.28;;
38779;SDS011;29273;49.962;9.768;2022-10-16T00:51:33;0.40;;;0.40;;
38779;SDS011;29273;49.962;9.768;2022-10-16T00:54:04;0.43;;;0.30;;
38779;SDS011;29273;49.962;9.768;2022-10-16T00:56:34;0.63;;;0.20;;
38779;SDS011;29273;49.962;9.768;2022-10-16T00:59:00;0.20;;;0.20;;
38779;SDS011;29273;49.962;9.768;2022-10-16T01:01:29;0.20;;;0.20;;
38779;SDS011;29273;49.962;9.768;2022-10-16T01:03:55;0.20;;;0.20;;
38779;SDS011;29273;49.962;9.768;2022-10-16T01:09:27;0.20;;;0.20;;
38779;SDS011;29273;49.962;9.768;2022-10-16T01:12:07;0.70;;;0.30;;
38779;SDS011;29273;49.962;9.768;2022-10-16T01:17:13;0.40;;;0.20;;
38779;SDS011;29273;49.962;9.768;2022-10-16T01:25:53;0.20;;;0.20;;
38779;SDS011;29273;49.962;9.768;2022-10-16T01:31:07;0.20;;;0.20;;
38779;SDS011;29273;49.962;9.768;2022-10-16T01:33:40;0.20;;;0.20;;
38779;SDS011;29273;49.962;9.768;2022-10-16T01:36:13;0.50;;;0.30;;
38779;SDS011;29273;49.962;9.768;2022-10-16T01:38:42;0.10;;;0.10;;
38779;SDS011;29273;49.962;9.768;2022-10-16T01:41:21;0.98;;;0.20;;
38779;SDS011;29273;49.962;9.768;2022-10-16T01:43:57;0.60;;;0.30;;
38779;SDS011;29273;49.962;9.768;2022-10-16T01:46:27;0.30;;;0.20;;
38779;SDS011;29273;49.962;9.768;2022-10-16T01:48:55;0.30;;;0.30;;
38779;SDS011;29273;49.962;9.768;2022-10-16T01:51:23;0.43;;;0.25;;
38779;SDS011;29273;49.962;9.768;2022-10-16T01:53:52;0.20;;;0.20;;
38779;SDS011;29273;49.962;9.768;2022-10-16T01:56:20;0.38;;;0.20;;
38779;SDS011;29273;49.962;9.768;2022-10-16T01:58:49;0.60;;;0.10;;
38779;SDS011;29273;49.962;9.768;2022-10-16T02:01:20;0.30;;;0.20;;
38779;SDS011;29273;49.962;9.768;2022-10-16T02:03:49;0.30;;;0.20;;
38779;SDS011;29273;49.962;9.768;2022-10-16T02:06:18;0.10;;;0.10;;
38779;SDS011;29273;49.962;9.768;2022-10-16T02:08:43;0.30;;;0.20;;
38779;SDS011;29273;49.962;9.768;2022-10-16T02:11:09;0.10;;;0.10;;
38779;SDS011;29273;49.962;9.768;2022-10-16T02:13:41;0.10;;;0.10;;
38779;SDS011;29273;49.962;9.768;2022-10-16T02:16:11;0.10;;;0.10;;
38779;SDS011;29273;49.962;9.768;2022-10-16T02:18:37;0.20;;;0.10;;
38779;SDS011;29273;49.962;9.768;2022-10-16T02:21:10;0.10;;;0.10;;
38779;SDS011;29273;49.962;9.768;2022-10-16T02:24:02;0.10;;;0.10;;
38779;SDS011;29273;49.962;9.768;2022-10-16T02:26:49;2.15;;;0.20;;
38779;SDS011;29273;49.962;9.768;2022-10-16T02:29:18;0.10;;;0.10;;
38779;SDS011;29273;49.962;9.768;2022-10-16T02:31:49;0.17;;;0.17;;
38779;SDS011;29273;49.962;9.768;2022-10-16T02:34:18;0.15;;;0.15;;
38779;SDS011;29273;49.962;9.768;2022-10-16T02:36:46;0.10;;;0.10;;
38779;SDS011;29273;49.962;9.768;2022-10-16T02:39:13;0.10;;;0.10;;
38779;SDS011;29273;49.962;9.768;2022-10-16T02:41:40;0.10;;;0.10;;
38779;SDS011;29273;49.962;9.768;2022-10-16T02:44:05;0.13;;;0.13;;
38779;SDS011;29273;49.962;9.768;2022-10-16T02:46:31;0.13;;;0.10;;
38779;SDS011;29273;49.962;9.768;2022-10-16T02:48:57;0.20;;;0.20;;
38779;SDS011;29273;49.962;9.768;2022-10-16T02:51:22;0.10;;;0.10;;
38779;SDS011;29273;49.962;9.768;2022-10-16T02:53:48;0.17;;;0.15;;
38779;SDS011;29273;49.962;9.768;2022-10-16T02:56:13;0.10;;;0.10;;
38779;SDS011;29273;49.962;9.768;2022-10-16T02:58:39;0.20;;;0.20;;
38779;SDS011;29273;49.962;9.768;2022-10-16T03:01:04;0.20;;;0.20;;
38779;SDS011;29273;49.962;9.768;2022-10-16T03:03:30;0.40;;;0.20;;
38779;SDS011;29273;49.962;9.768;2022-10-16T03:05:55;0.68;;;0.20;;
38779;SDS011;29273;49.962;9.768;2022-10-16T03:08:21;0.10;;;0.10;;
38779;SDS011;29273;49.962;9.768;2022-10-16T03:10:49;0.10;;;0.10;;
38779;SDS011;29273;49.962;9.768;2022-10-16T03:13:15;0.10;;;0.10;;
38779;SDS011;29273;49.962;9.768;2022-10-16T03:15:41;0.15;;;0.10;;
38779;SDS011;29273;49.962;9.768;2022-10-16T03:18:06;0.10;;;0.10;;
38779;SDS011;29273;49.962;9.768;2022-10-16T03:20:32;0.10;;;0.10;;
38779;SDS011;29273;49.962;9.768;2022-10-16T03:22:57;0.65;;;0.20;;
38779;SDS011;29273;49.962;9.768;2022-10-16T03:25:23;0.10;;;0.10;;
38779;SDS011;29273;49.962;9.768;2022-10-16T03:27:48;0.10;;;0.10;;
38779;SDS011;29273;49.962;9.768;2022-10-16T03:30:14;0.10;;;0.10;;
38779;SDS011;29273;49.962;9.768;2022-10-16T03:32:40;0.25;;;0.20;;
38779;SDS011;29273;49.962;9.768;2022-10-16T03:35:06;0.30;;;0.10;;
38779;SDS011;29273;49.962;9.768;2022-10-16T03:37:31;0.10;;;0.10;;
38779;SDS011;29273;49.962;9.768;2022-10-16T03:39:57;0.20;;;0.10;;
38779;SDS011;29273;49.962;9.768;2022-10-16T03:42:23;0.10;;;0.10;;
38779;SDS011;29273;49.962;9.768;2022-10-16T03:44:49;0.10;;;0.10;;
38779;SDS011;29273;49.962;9.768;2022-10-16T03:47:15;0.10;;;0.10;;
38779;SDS011;29273;49.962;9.768;2022-10-16T03:49:40;0.10;;;0.10;;
38779;SDS011;29273;49.962;9.768;2022-10-16T03:52:06;0.13;;;0.13;;
38779;SDS011;29273;49.962;9.768;2022-10-16T03:54:31;0.65;;;0.20;;
38779;SDS011;29273;49.962;9.768;2022-10-16T03:56:57;0.10;;;0.10;;
38779;SDS011;29273;49.962;9.768;2022-10-16T03:59:22;0.20;;;0.20;;
38779;SDS011;29273;49.962;9.768;2022-10-16T04:01:47;0.20;;;0.20;;
38779;SDS011;29273;49.962;9.768;2022-10-16T04:04:13;0.20;;;0.20;;
38779;SDS011;29273;49.962;9.768;2022-10-16T04:06:38;0.40;;;0.20;;
38779;SDS011;29273;49.962;9.768;2022-10-16T04:09:04;0.25;;;0.20;;
38779;SDS011;29273;49.962;9.768;2022-10-16T04:11:29;0.10;;;0.10;;
38779;SDS011;29273;49.962;9.768;2022-10-16T04:13:55;0.43;;;0.20;;
38779;SDS011;29273;49.962;9.768;2022-10-16T04:16:20;0.17;;;0.17;;
38779;SDS011;29273;49.962;9.768;2022-10-16T04:18:46;0.20;;;0.10;;
38779;SDS011;29273;49.962;9.768;2022-10-16T04:21:11;0.20;;;0.20;;
38779;SDS011;29273;49.962;9.768;2022-10-16T04:23:37;0.30;;;0.25;;
38779;SDS011;29273;49.962;9.768;2022-10-16T04:26:02;0.20;;;0.20;;
38779;SDS011;29273;49.962;9.768;2022-10-16T04:28:28;0.20;;;0.10;;
38779;SDS011;29273;49.962;9.768;2022-10-16T04:30:54;0.20;;;0.20;;
38779;SDS011;29273;49.962;9.768;2022-10-16T04:33:20;0.20;;;0.20;;
38779;SDS011;29273;49.962;9.768;2022-10-16T04:35:45;0.15;;;0.15;;
38779;SDS011;29273;49.962;9.768;2022-10-16T04:38:11;0.30;;;0.20;;
38779;SDS011;29273;49.962;9.768;2022-10-16T04:40:36;0.30;;;0.13;;
38779;SDS011;29273;49.962;9.768;2022-10-16T04:43:04;0.47;;;0.38;;
38779;SDS011;29273;49.962;9.768;2022-10-16T04:45:31;0.10;;;0.10;;
38779;SDS011;29273;49.962;9.768;2022-10-16T04:47:57;0.20;;;0.20;;
38779;SDS011;29273;49.962;9.768;2022-10-16T04:50:23;0.20;;;0.20;;
38779;SDS011;29273;49.962;9.768;2022-10-16T04:53:03;0.30;;;0.20;;
38779;SDS011;29273;49.962;9.768;2022-10-16T04:55:29;0.10;;;0.10;;
38779;SDS011;29273;49.962;9.768;2022-10-16T04:57:54;0.10;;;0.10;;
38779;SDS011;29273;49.962;9.768;2022-10-16T05:00:20;0.20;;;0.20;;
38779;SDS011;29273;49.962;9.768;2022-10-16T05:02:47;0.22;;;0.20;;
38779;SDS011;29273;49.962;9.768;2022-10-16T05:05:14;0.15;;;0.15;;
38779;SDS011;29273;49.962;9.768;2022-10-16T05:07:40;1.58;;;0.20;;
38779;SDS011;29273;49.962;9.768;2022-10-16T05:10:05;0.43;;;0.22;;
38779;SDS011;29273;49.962;9.768;2022-10-16T05:12:31;1.52;;;0.60;;
38779;SDS011;29273;49.962;9.768;2022-10-16T05:14:57;0.20;;;0.20;;
38779;SDS011;29273;49.962;9.768;2022-10-16T05:17:26;0.50;;;0.20;;
38779;SDS011;29273;49.962;9.768;2022-10-16T05:19:52;0.22;;;0.22;;
38779;SDS011;29273;49.962;9.768;2022-10-16T05:22:17;0.20;;;0.20;;
38779;SDS011;29273;49.962;9.768;2022-10-16T05:24:43;0.20;;;0.20;;
38779;SDS011;29273;49.962;9.768;2022-10-16T05:27:09;0.20;;;0.20;;
38779;SDS011;29273;49.962;9.768;2022-10-16T05:29:36;0.30;;;0.30;;
38779;SDS011;29273;49.962;9.768;2022-10-16T05:32:02;0.73;;;0.30;;
38779;SDS011;29273;49.962;9.768;2022-10-16T05:34:27;0.30;;;0.20;;
38779;SDS011;29273;49.962;9.768;2022-10-16T05:36:53;0.38;;;0.30;;
38779;SDS011;29273;49.962;9.768;2022-10-16T05:39:18;0.20;;;0.20;;
38779;SDS011;29273;49.962;9.768;2022-10-16T05:41:44;0.20;;;0.20;;
38779;SDS011;29273;49.962;9.768;2022-10-16T05:44:10;0.30;;;0.30;;
38779;SDS011;29273;49.962;9.768;2022-10-16T05:46:36;1.48;;;0.30;;
38779;SDS011;29273;49.962;9.768;2022-10-16T05:49:01;0.30;;;0.30;;
38779;SDS011;29273;49.962;9.768;2022-10-16T05:51:27;0.38;;;0.30;;
38779;SDS011;29273;49.962;9.768;2022-10-16T05:53:52;0.20;;;0.20;;
38779;SDS011;29273;49.962;9.768;2022-10-16T05:56:17;0.30;;;0.30;;
38779;SDS011;29273;49.962;9.768;2022-10-16T05:58:43;0.30;;;0.30;;
38779;SDS011;29273;49.962;9.768;2022-10-16T06:01:13;0.68;;;0.30;;
38779;SDS011;29273;49.962;9.768;2022-10-16T06:03:40;0.70;;;0.30;;
38779;SDS011;29273;49.962;9.768;2022-10-16T06:06:07;0.20;;;0.20;;
38779;SDS011;29273;49.962;9.768;2022-10-16T06:08:34;0.40;;;0.30;;
38779;SDS011;29273;49.962;9.768;2022-10-16T06:11:00;0.63;;;0.32;;
38779;SDS011;29273;49.962;9.768;2022-10-16T06:13:36;0.20;;;0.20;;
38779;SDS011;29273;49.962;9.768;2022-10-16T06:16:02;0.63;;;0.47;;
38779;SDS011;29273;49.962;9.768;2022-10-16T06:18:29;0.40;;;0.40;;
38779;SDS011;29273;49.962;9.768;2022-10-16T06:20:55;0.50;;;0.40;;
38779;SDS011;29273;49.962;9.768;2022-10-16T06:23:21;0.50;;;0.30;;
38779;SDS011;29273;49.962;9.768;2022-10-16T06:25:47;0.40;;;0.30;;
38779;SDS011;29273;49.962;9.768;2022-10-16T06:28:13;0.30;;;0.30;;
38779;SDS011;29273;49.962;9.768;2022-10-16T06:30:39;0.47;;;0.40;;
38779;SDS011;29273;49.962;9.768;2022-10-16T06:33:05;0.40;;;0.32;;
38779;SDS011;29273;49.962;9.768;2022-10-16T06:35:31;0.40;;;0.40;;
38779;SDS011;29273;49.962;9.768;2022-10-16T06:37:57;0.50;;;0.45;;
38779;SDS011;29273;49.962;9.768;2022-10-16T06:40:23;0.60;;;0.40;;
38779;SDS011;29273;49.962;9.768;2022-10-16T06:42:48;1.90;;;0.60;;
38779;SDS011;29273;49.962;9.768;2022-10-16T06:45:14;1.20;;;0.50;;
38779;SDS011;29273;49.962;9.768;2022-10-16T06:47:39;1.15;;;0.70;;
38779;SDS011;29273;49.962;9.768;2022-10-16T06:50:05;0.63;;;0.60;;
38779;SDS011;29273;49.962;9.768;2022-10-16T06:52:34;0.60;;;0.50;;
38779;SDS011;29273;49.962;9.768;2022-10-16T06:54:59;0.30;;;0.30;;
38779;SDS011;29273;49.962;9.768;2022-10-16T06:57:25;0.60;;;0.57;;
38779;SDS011;29273;49.962;9.768;2022-10-16T06:59:51;0.82;;;0.68;;
38779;SDS011;29273;49.962;9.768;2022-10-16T07:02:16;0.50;;;0.50;;
38779;SDS011;29273;49.962;9.768;2022-10-16T07:04:42;0.73;;;0.50;;
38779;SDS011;29273;49.962;9.768;2022-10-16T07:07:07;1.10;;;0.50;;
38779;SDS011;29273;49.962;9.768;2022-10-16T07:09:33;0.65;;;0.50;;
38779;SDS011;29273;49.962;9.768;2022-10-16T07:11:58;0.90;;;0.50;;
38779;SDS011;29273;49.962;9.768;2022-10-16T07:14:24;0.65;;;0.65;;
38779;SDS011;29273;49.962;9.768;2022-10-16T07:16:50;0.90;;;0.70;;
38779;SDS011;29273;49.962;9.768;2022-10-16T07:19:15;0.80;;;0.80;;
38779;SDS011;29273;49.962;9.768;2022-10-16T07:21:42;1.00;;;0.85;;
38779;SDS011;29273;49.962;9.768;2022-10-16T07:24:13;1.10;;;0.70;;
38779;SDS011;29273;49.962;9.768;2022-10-16T07:26:42;1.17;;;0.85;;
38779;SDS011;29273;49.962;9.768;2022-10-16T07:29:13;1.40;;;1.00;;
38779;SDS011;29273;49.962;9.768;2022-10-16T07:31:41;2.08;;;0.63;;
38779;SDS011;29273;49.962;9.768;2022-10-16T07:34:07;1.10;;;0.70;;
38779;SDS011;29273;49.962;9.768;2022-10-16T07:36:33;3.35;;;0.70;;
38779;SDS011;29273;49.962;9.768;2022-10-16T07:38:58;1.02;;;0.80;;
38779;SDS011;29273;49.962;9.768;2022-10-16T07:41:24;1.27;;;0.80;;
38779;SDS011;29273;49.962;9.768;2022-10-16T07:43:50;0.60;;;0.60;;
38779;SDS011;29273;49.962;9.768;2022-10-16T07:46:18;1.10;;;0.50;;
38779;SDS011;29273;49.962;9.768;2022-10-16T07:48:45;0.90;;;0.60;;
38779;SDS011;29273;49.962;9.768;2022-10-16T07:51:13;0.65;;;0.50;;
38779;SDS011;29273;49.962;9.768;2022-10-16T07:53:40;0.70;;;0.57;;
38779;SDS011;29273;49.962;9.768;2022-10-16T07:56:06;0.95;;;0.70;;
38779;SDS011;29273;49.962;9.768;2022-10-16T07:58:32;1.13;;;0.70;;
38779;SDS011;29273;49.962;9.768;2022-10-16T08:01:02;1.00;;;0.60;;
38779;SDS011;29273;49.962;9.768;2022-10-16T08:03:29;0.73;;;0.60;;
38779;SDS011;29273;49.962;9.768;2022-10-16T08:05:56;0.80;;;0.60;;
38779;SDS011;29273;49.962;9.768;2022-10-16T08:08:22;2.55;;;0.75;;
38779;SDS011;29273;49.962;9.768;2022-10-16T08:10:48;0.73;;;0.60;;
38779;SDS011;29273;49.962;9.768;2022-10-16T08:13:13;0.50;;;0.50;;
38779;SDS011;29273;49.962;9.768;2022-10-16T08:15:40;0.70;;;0.60;;
38779;SDS011;29273;49.962;9.768;2022-10-16T08:18:10;2.03;;;0.85;;
38779;SDS011;29273;49.962;9.768;2022-10-16T08:20:37;1.55;;;0.70;;
38779;SDS011;29273;49.962;9.768;2022-10-16T08:23:03;0.70;;;0.60;;
38779;SDS011;29273;49.962;9.768;2022-10-16T08:25:29;0.68;;;0.60;;
38779;SDS011;29273;49.962;9.768;2022-10-16T08:27:55;1.13;;;0.77;;
38779;SDS011;29273;49.962;9.768;2022-10-16T08:30:21;0.90;;;0.60;;
38779;SDS011;29273;49.962;9.768;2022-10-16T08:32:48;0.75;;;0.60;;
38779;SDS011;29273;49.962;9.768;2022-10-16T08:35:13;1.13;;;0.82;;
38779;SDS011;29273;49.962;9.768;2022-10-16T08:37:40;1.17;;;0.77;;
38779;SDS011;29273;49.962;9.768;2022-10-16T08:40:07;0.70;;;0.60;;
38779;SDS011;29273;49.962;9.768;2022-10-16T08:43:11;1.43;;;0.77;;
38779;SDS011;29273;49.962;9.768;2022-10-16T08:48:43;1.00;;;0.80;;
38779;SDS011;29273;49.962;9.768;2022-10-16T08:51:13;0.80;;;0.55;;
38779;SDS011;29273;49.962;9.768;2022-10-16T08:53:46;0.65;;;0.52;;
38779;SDS011;29273;49.962;9.768;2022-10-16T08:56:17;0.70;;;0.60;;
38779;SDS011;29273;49.962;9.768;2022-10-16T08:58:43;2.25;;;0.60;;
38779;SDS011;29273;49.962;9.768;2022-10-16T09:01:12;0.60;;;0.43;;
38779;SDS011;29273;49.962;9.768;2022-10-16T09:14:52;0.75;;;0.45;;
38779;SDS011;29273;49.962;9.768;2022-10-16T09:20:42;0.43;;;0.40;;
38779;SDS011;29273;49.962;9.768;2022-10-16T09:23:18;0.65;;;0.47;;
38779;SDS011;29273;49.962;9.768;2022-10-16T09:25:50;0.40;;;0.38;;
38779;SDS011;29273;49.962;9.768;2022-10-16T09:28:17;0.50;;;0.32;;
38779;SDS011;29273;49.962;9.768;2022-10-16T09:30:44;1.15;;;0.40;;
38779;SDS011;29273;49.962;9.768;2022-10-16T09:33:10;5.60;;;0.80;;
38779;SDS011;29273;49.962;9.768;2022-10-16T09:35:38;0.35;;;0.32;;
38779;SDS011;29273;49.962;9.768;2022-10-16T09:38:07;0.40;;;0.40;;
38779;SDS011;29273;49.962;9.768;2022-10-16T09:40:37;2.25;;;0.38;;
38779;SDS011;29273;49.962;9.768;2022-10-16T09:43:17;1.15;;;0.50;;
38779;SDS011;29273;49.962;9.768;2022-10-16T09:45:58;0.32;;;0.30;;
38779;SDS011;29273;49.962;9.768;2022-10-16T09:48:33;0.60;;;0.30;;
38779;SDS011;29273;49.962;9.768;2022-10-16T09:51:04;0.93;;;0.43;;
38779;SDS011;29273;49.962;9.768;2022-10-16T09:53:43;0.57;;;0.40;;
38779;SDS011;29273;49.962;9.768;2022-10-16T09:56:30;1.58;;;0.50;;
38779;SDS011;29273;49.962;9.768;2022-10-16T09:58:59;0.68;;;0.50;;
38779;SDS011;29273;49.962;9.768;2022-10-16T10:01:29;1.73;;;0.50;;
38779;SDS011;29273;49.962;9.768;2022-10-16T10:04:01;0.98;;;0.52;;
38779;SDS011;29273;49.962;9.768;2022-10-16T10:06:29;1.00;;;0.60;;
38779;SDS011;29273;49.962;9.768;2022-10-16T10:11:37;1.20;;;0.50;;
38779;SDS011;29273;49.962;9.768;2022-10-16T10:14:17;1.27;;;0.47;;
38779;SDS011;29273;49.962;9.768;2022-10-16T10:17:07;1.60;;;0.50;;
38779;SDS011;29273;49.962;9.768;2022-10-16T10:19:52;2.25;;;0.50;;
38779;SDS011;29273;49.962;9.768;2022-10-16T10:35:43;2.20;;;0.35;;
38779;SDS011;29273;49.962;9.768;2022-10-16T10:43:47;0.95;;;0.45;;
38779;SDS011;29273;49.962;9.768;2022-10-16T10:46:36;0.47;;;0.40;;
38779;SDS011;29273;49.962;9.768;2022-10-16T11:06:23;0.60;;;0.43;;
38779;SDS011;29273;49.962;9.768;2022-10-16T11:08:53;0.60;;;0.40;;
38779;SDS011;29273;49.962;9.768;2022-10-16T11:11:29;0.73;;;0.60;;
38779;SDS011;29273;49.962;9.768;2022-10-16T11:16:33;0.37;;;0.37;;
38779;SDS011;29273;49.962;9.768;2022-10-16T11:19:10;0.50;;;0.47;;
38779;SDS011;29273;49.962;9.768;2022-10-16T11:21:48;0.45;;;0.40;;
38779;SDS011;29273;49.962;9.768;2022-10-16T11:26:48;0.57;;;0.32;;
38779;SDS011;29273;49.962;9.768;2022-10-16T11:29:20;0.30;;;0.30;;
38779;SDS011;29273;49.962;9.768;2022-10-16T11:31:55;1.40;;;0.50;;
38779;SDS011;29273;49.962;9.768;2022-10-16T11:36:58;0.50;;;0.40;;
38779;SDS011;29273;49.962;9.768;2022-10-16T11:39:29;0.40;;;0.40;;
38779;SDS011;29273;49.962;9.768;2022-10-16T11:41:58;0.68;;;0.40;;
38779;SDS011;29273;49.962;9.768;2022-10-16T11:56:03;0.57;;;0.43;;
38779;SDS011;29273;49.962;9.768;2022-10-16T12:06:31;0.50;;;0.50;;
38779;SDS011;29273;49.962;9.768;2022-10-16T12:09:02;0.30;;;0.30;;
38779;SDS011;29273;49.962;9.768;2022-10-16T12:14:18;0.52;;;0.30;;
38779;SDS011;29273;49.962;9.768;2022-10-16T12:16:59;0.40;;;0.30;;
38779;SDS011;29273;49.962;9.768;2022-10-16T12:19:28;0.90;;;0.50;;
38779;SDS011;29273;49.962;9.768;2022-10-16T12:21:56;0.40;;;0.30;;
38779;SDS011;29273;49.962;9.768;2022-10-16T12:24:37;0.40;;;0.40;;
38779;SDS011;29273;49.962;9.768;2022-10-16T12:27:23;0.40;;;0.40;;
38779;SDS011;29273;49.962;9.768;2022-10-16T12:30:03;0.65;;;0.40;;
38779;SDS011;29273;49.962;9.768;2022-10-16T12:32:34;0.50;;;0.50;;
38779;SDS011;29273;49.962;9.768;2022-10-16T12:35:02;0.30;;;0.30;;
38779;SDS011;29273;49.962;9.768;2022-10-16T12:37:31;0.38;;;0.38;;
38779;SDS011;29273;49.962;9.768;2022-10-16T12:39:59;0.43;;;0.32;;
38779;SDS011;29273;49.962;9.768;2022-10-16T12:42:36;0.50;;;0.40;;
38779;SDS011;29273;49.962;9.768;2022-10-16T12:45:01;0.60;;;0.32;;
38779;SDS011;29273;49.962;9.768;2022-10-16T12:47:50;1.77;;;0.60;;
38779;SDS011;29273;49.962;9.768;2022-10-16T12:53:00;0.82;;;0.63;;
38779;SDS011;29273;49.962;9.768;2022-10-16T12:55:31;1.38;;;0.60;;
38779;SDS011;29273;49.962;9.768;2022-10-16T13:01:11;0.52;;;0.40;;
38779;SDS011;29273;49.962;9.768;2022-10-16T13:06:51;0.63;;;0.50;;
38779;SDS011;29273;49.962;9.768;2022-10-16T13:12:15;0.65;;;0.30;;
38779;SDS011;29273;49.962;9.768;2022-10-16T13:28:40;0.38;;;0.38;;
38779;SDS011;29273;49.962;9.768;2022-10-16T13:31:05;0.45;;;0.40;;
38779;SDS011;29273;49.962;9.768;2022-10-16T13:33:41;0.68;;;0.60;;
38779;SDS011;29273;49.962;9.768;2022-10-16T13:36:23;1.25;;;0.60;;
38779;SDS011;29273;49.962;9.768;2022-10-16T13:38:58;0.50;;;0.50;;
38779;SDS011;29273;49.962;9.768;2022-10-16T13:41:29;0.82;;;0.50;;
38779;SDS011;29273;49.962;9.768;2022-10-16T13:43:55;1.60;;;0.55;;
38779;SDS011;29273;49.962;9.768;2022-10-16T13:46:22;1.15;;;0.60;;
38779;SDS011;29273;49.962;9.768;2022-10-16T13:48:59;0.52;;;0.52;;
38779;SDS011;29273;49.962;9.768;2022-10-16T13:51:30;0.80;;;0.60;;
38779;SDS011;29273;49.962;9.768;2022-10-16T13:53:57;1.20;;;0.80;;
38779;SDS011;29273;49.962;9.768;2022-10-16T13:56:27;0.90;;;0.50;;
38779;SDS011;29273;49.962;9.768;2022-10-16T13:59:02;2.00;;;0.50;;
38779;SDS011;29273;49.962;9.768;2022-10-16T14:01:31;0.82;;;0.50;;
38779;SDS011;29273;49.962;9.768;2022-10-16T14:04:09;0.82;;;0.40;;
38779;SDS011;29273;49.962;9.768;2022-10-16T14:06:41;0.50;;;0.40;;
38779;SDS011;29273;49.962;9.768;2022-10-16T14:09:21;0.50;;;0.40;;
38779;SDS011;29273;49.962;9.768;2022-10-16T14:11:50;0.70;;;0.40;;
38779;SDS011;29273;49.962;9.768;2022-10-16T14:14:18;0.65;;;0.50;;
38779;SDS011;29273;49.962;9.768;2022-10-16T14:16:46;1.05;;;0.45;;
38779;SDS011;29273;49.962;9.768;2022-10-16T14:19:14;0.40;;;0.40;;
38779;SDS011;29273;49.962;9.768;2022-10-16T14:21:44;0.50;;;0.50;;
38779;SDS011;29273;49.962;9.768;2022-10-16T14:24:10;0.77;;;0.40;;
38779;SDS011;29273;49.962;9.768;2022-10-16T14:26:41;1.73;;;0.88;;
38779;SDS011;29273;49.962;9.768;2022-10-16T14:29:13;0.70;;;0.50;;
38779;SDS011;29273;49.962;9.768;2022-10-16T14:31:40;0.60;;;0.60;;
38779;SDS011;29273;49.962;9.768;2022-10-16T14:39:26;0.98;;;0.82;;
38779;SDS011;29273;49.962;9.768;2022-10-16T14:41:52;0.93;;;0.80;;
38779;SDS011;29273;49.962;9.768;2022-10-16T14:44:21;1.20;;;0.65;;
38779;SDS011;29273;49.962;9.768;2022-10-16T14:46:53;1.92;;;0.90;;
38779;SDS011;29273;49.962;9.768;2022-10-16T14:49:20;1.00;;;0.70;;
38779;SDS011;29273;49.962;9.768;2022-10-16T14:51:47;0.98;;;0.80;;
38779;SDS011;29273;49.962;9.768;2022-10-16T14:54:17;1.52;;;0.50;;
38779;SDS011;29273;49.962;9.768;2022-10-16T14:56:50;0.60;;;0.50;;
38779;SDS011;29273;49.962;9.768;2022-10-16T15:01:55;0.40;;;0.40;;
38779;SDS011;29273;49.962;9.768;2022-10-16T15:04:21;0.70;;;0.50;;
38779;SDS011;29273;49.962;9.768;2022-10-16T15:06:46;0.45;;;0.45;;
38779;SDS011;29273;49.962;9.768;2022-10-16T15:09:12;0.38;;;0.38;;
38779;SDS011;29273;49.962;9.768;2022-10-16T15:11:38;0.35;;;0.35;;
38779;SDS011;29273;49.962;9.768;2022-10-16T15:14:04;0.70;;;0.50;;
38779;SDS011;29273;49.962;9.768;2022-10-16T15:16:30;0.65;;;0.45;;
38779;SDS011;29273;49.962;9.768;2022-10-16T15:18:56;0.45;;;0.43;;
38779;SDS011;29273;49.962;9.768;2022-10-16T15:23:55;0.52;;;0.50;;
38779;SDS011;29273;49.962;9.768;2022-10-16T15:26:22;0.40;;;0.40;;
38779;SDS011;29273;49.962;9.768;2022-10-16T15:28:49;0.60;;;0.50;;
38779;SDS011;29273;49.962;9.768;2022-10-16T15:31:15;0.60;;;0.57;;
38779;SDS011;29273;49.962;9.768;2022-10-16T15:33:40;1.02;;;0.70;;
38779;SDS011;29273;49.962;9.768;2022-10-16T15:36:06;1.35;;;0.80;;
38779;SDS011;29273;49.962;9.768;2022-10-16T15:38:32;0.90;;;0.60;;
38779;SDS011;29273;49.962;9.768;2022-10-16T15:40:57;0.88;;;0.63;;
38779;SDS011;29273;49.962;9.768;2022-10-16T15:43:23;1.48;;;0.80;;
38779;SDS011;29273;49.962;9.768;2022-10-16T15:45:58;0.95;;;0.82;;
38779;SDS011;29273;49.962;9.768;2022-10-16T15:48:29;2.42;;;1.15;;
38779;SDS011;29273;49.962;9.768;2022-10-16T15:50:55;2.03;;;1.35;;
38779;SDS011;29273;49.962;9.768;2022-10-16T15:53:21;2.42;;;1.20;;
38779;SDS011;29273;49.962;9.768;2022-10-16T15:55:46;1.67;;;1.02;;
38779;SDS011;29273;49.962;9.768;2022-10-16T15:58:12;3.38;;;1.10;;
38779;SDS011;29273;49.962;9.768;2022-10-16T16:00:37;1.20;;;0.88;;
38779;SDS011;29273;49.962;9.768;2022-10-16T16:03:03;1.42;;;0.90;;
38779;SDS011;29273;49.962;9.768;2022-10-16T16:05:29;1.35;;;0.88;;
38779;SDS011;29273;49.962;9.768;2022-10-16T16:07:54;1.23;;;0.98;;
38779;SDS011;29273;49.962;9.768;2022-10-16T16:10:20;2.63;;;0.80;;
38779;SDS011;29273;49.962;9.768;2022-10-16T16:12:47;1.10;;;0.77;;
38779;SDS011;29273;49.962;9.768;2022-10-16T16:15:18;0.82;;;0.80;;
38779;SDS011;29273;49.962;9.768;2022-10-16T16:17:45;0.73;;;0.57;;
38779;SDS011;29273;49.962;9.768;2022-10-16T16:20:10;1.05;;;0.60;;
38779;SDS011;29273;49.962;9.768;2022-10-16T16:22:36;0.88;;;0.70;;
38779;SDS011;29273;49.962;9.768;2022-10-16T16:25:02;1.48;;;0.50;;
38779;SDS011;29273;49.962;9.768;2022-10-16T16:27:28;2.00;;;0.90;;
38779;SDS011;29273;49.962;9.768;2022-10-16T16:29:55;0.75;;;0.60;;
38779;SDS011;29273;49.962;9.768;2022-10-16T16:32:21;2.05;;;0.82;;
38779;SDS011;29273;49.962;9.768;2022-10-16T16:34:47;2.45;;;0.82;;
38779;SDS011;29273;49.962;9.768;2022-10-16T16:37:12;2.30;;;1.02;;
38779;SDS011;29273;49.962;9.768;2022-10-16T16:39:38;2.25;;;1.15;;
38779;SDS011;29273;49.962;9.768;2022-10-16T16:42:04;1.55;;;1.10;;
38779;SDS011;29273;49.962;9.768;2022-10-16T16:44:31;1.40;;;1.10;;
38779;SDS011;29273;49.962;9.768;2022-10-16T16:46:57;1.30;;;1.10;;
38779;SDS011;29273;49.962;9.768;2022-10-16T16:49:23;1.40;;;1.00;;
38779;SDS011;29273;49.962;9.768;2022-10-16T16:51:49;2.80;;;1.10;;
38779;SDS011;29273;49.962;9.768;2022-10-16T16:54:14;1.15;;;1.00;;
38779;SDS011;29273;49.962;9.768;2022-10-16T16:56:40;1.98;;;1.00;;
38779;SDS011;29273;49.962;9.768;2022-10-16T16:59:15;1.75;;;1.20;;
38779;SDS011;29273;49.962;9.768;2022-10-16T17:01:44;1.50;;;1.10;;
38779;SDS011;29273;49.962;9.768;2022-10-16T17:04:10;1.13;;;1.02;;
38779;SDS011;29273;49.962;9.768;2022-10-16T17:06:36;2.42;;;1.08;;
38779;SDS011;29273;49.962;9.768;2022-10-16T17:09:03;1.50;;;1.40;;
38779;SDS011;29273;49.962;9.768;2022-10-16T17:11:31;1.20;;;1.10;;
38779;SDS011;29273;49.962;9.768;2022-10-16T17:13:58;1.60;;;1.30;;
38779;SDS011;29273;49.962;9.768;2022-10-16T17:16:26;1.40;;;1.17;;